Time;durP1;ratioP1;P1;durP2;ratioP2;P2;SDS_P1;SDS_P2;PMS_P1;PMS_P2;Temp;Humidity;BMP_temperature;BMP_pressure;BME280_temperature;BME280_humidity;BME280_pressure;Samples;Min_cycle;Max_cycle;Signal;HPM_P1;HPM_P2
2020/12/02 00:00:30;;;;;;;25.70;13.10;;;;;;;;;;5053591;28;20403;-49
2020/12/02 00:02:56;;;;;;;24.10;12.17;;;;;;;;;;5053328;28;20405;-49
2020/12/02 00:05:22;;;;;;;21.50;11.83;;;;;;;;;;5053608;28;20490;-49
2020/12/02 00:07:53;;;;;;;22.23;12.80;;;;;;;;;;5053345;28;21000;-49
2020/12/02 00:10:19;;;;;;;24.70;13.93;;;;;;;;;;5053479;28;20431;-49
2020/12/02 00:12:45;;;;;;;23.70;13.17;;;;;;;;;;5053195;28;20404;-50
2020/12/02 00:15:11;;;;;;;23.67;14.37;;;;;;;;;;5053502;28;21108;-49
2020/12/02 00:17:37;;;;;;;26.63;13.10;;;;;;;;;;5053453;28;20457;-49
2020/12/02 00:20:05;;;;;;;28.37;14.00;;;;;;;;;;5053157;28;20502;-49
2020/12/02 00:22:31;;;;;;;25.90;13.20;;;;;;;;;;5052978;28;20408;-49
2020/12/02 00:24:57;;;;;;;36.17;14.40;;;;;;;;;;5053091;28;20413;-49
2020/12/02 00:27:26;;;;;;;32.83;13.77;;;;;;;;;;5052901;28;20981;-49
2020/12/02 00:29:52;;;;;;;27.53;14.37;;;;;;;;;;5053062;28;20435;-49
2020/12/02 00:32:32;;;;;;;25.50;13.77;;;;;;;;;;5052828;28;20912;-49
2020/12/02 00:34:58;;;;;;;23.60;13.37;;;;;;;;;;5052018;28;20408;-49
2020/12/02 00:37:25;;;;;;;24.80;13.80;;;;;;;;;;5052831;28;20481;-50
2020/12/02 00:39:52;;;;;;;23.07;12.93;;;;;;;;;;5052876;28;20541;-49
2020/12/02 00:42:18;;;;;;;24.40;13.30;;;;;;;;;;5052649;28;20413;-49
2020/12/02 00:44:44;;;;;;;30.40;12.77;;;;;;;;;;5052650;28;20483;-48
2020/12/02 00:47:11;;;;;;;22.20;13.37;;;;;;;;;;5052790;28;20431;-49
2020/12/02 00:49:37;;;;;;;24.50;12.50;;;;;;;;;;5052524;28;20403;-49
2020/12/02 00:52:04;;;;;;;24.70;13.00;;;;;;;;;;5052526;28;20508;-48
2020/12/02 00:54:30;;;;;;;31.70;14.90;;;;;;;;;;5052752;28;20886;-49
2020/12/02 00:56:56;;;;;;;36.80;14.10;;;;;;;;;;5054646;28;20468;-49
2020/12/02 00:59:25;;;;;;;40.37;15.90;;;;;;;;;;5072637;28;20403;-52
2020/12/02 01:02:02;;;;;;;37.33;15.87;;;;;;;;;;5072373;28;20809;-50
2020/12/02 01:04:28;;;;;;;43.63;14.30;;;;;;;;;;5072445;28;20385;-49
2020/12/02 01:06:56;;;;;;;39.87;14.67;;;;;;;;;;5072236;28;20518;-49
2020/12/02 01:09:22;;;;;;;47.17;14.93;;;;;;;;;;5072357;28;20415;-49
2020/12/02 01:11:49;;;;;;;34.90;14.67;;;;;;;;;;5072207;28;20801;-49
2020/12/02 01:14:16;;;;;;;35.20;16.67;;;;;;;;;;5072140;28;20402;-49
2020/12/02 01:16:44;;;;;;;31.53;15.20;;;;;;;;;;5071924;28;20464;-50
2020/12/02 01:19:12;;;;;;;55.13;17.50;;;;;;;;;;5072202;28;20964;-49
2020/12/02 01:21:56;;;;;;;45.57;16.93;;;;;;;;;;5071913;28;20874;-49
2020/12/02 01:24:36;;;;;;;44.37;17.40;;;;;;;;;;5071989;28;20397;-49
2020/12/02 01:27:18;;;;;;;41.43;17.80;;;;;;;;;;5065144;28;20446;-50
2020/12/02 01:29:45;;;;;;;39.30;18.57;;;;;;;;;;5052114;28;20952;-49
2020/12/02 01:32:11;;;;;;;41.40;17.10;;;;;;;;;;5051730;28;20408;-48
2020/12/02 01:34:38;;;;;;;41.43;19.63;;;;;;;;;;5051998;28;20409;-48
2020/12/02 01:37:10;;;;;;;45.43;20.30;;;;;;;;;;5051667;28;20806;-48
2020/12/02 01:39:40;;;;;;;44.87;21.30;;;;;;;;;;5051813;28;20442;-49
2020/12/02 01:42:10;;;;;;;44.93;21.27;;;;;;;;;;5051477;28;20466;-49
2020/12/02 01:44:36;;;;;;;53.93;23.40;;;;;;;;;;5051758;28;20840;-50
2020/12/02 01:47:06;;;;;;;50.87;22.10;;;;;;;;;;5051572;28;20430;-50
2020/12/02 01:49:50;;;;;;;51.30;22.23;;;;;;;;;;5051567;28;20403;-49
2020/12/02 01:52:33;;;;;;;49.07;23.20;;;;;;;;;;5051353;28;20418;-49
2020/12/02 01:55:01;;;;;;;52.08;22.77;;;;;;;;;;5051792;28;20452;-49
2020/12/02 01:57:31;;;;;;;46.90;20.57;;;;;;;;;;5051296;28;20223;-49
2020/12/02 02:00:06;;;;;;;40.85;19.83;;;;;;;;;;5051406;28;20429;-49
2020/12/02 02:02:38;;;;;;;40.92;20.15;;;;;;;;;;5050260;28;20167;-49
2020/12/02 02:05:04;;;;;;;47.80;22.13;;;;;;;;;;5050661;28;20646;-49
2020/12/02 02:07:32;;;;;;;48.90;21.47;;;;;;;;;;5051184;28;20426;-49
2020/12/02 02:10:00;;;;;;;42.10;20.70;;;;;;;;;;5051188;28;20460;-50
2020/12/02 02:12:44;;;;;;;44.90;20.80;;;;;;;;;;5051027;28;20175;-49
2020/12/02 02:15:23;;;;;;;44.47;21.20;;;;;;;;;;5051003;28;20454;-49
2020/12/02 02:18:00;;;;;;;43.63;21.77;;;;;;;;;;5051155;28;20274;-49
2020/12/02 02:20:27;;;;;;;48.00;20.13;;;;;;;;;;5050949;28;20403;-49
2020/12/02 02:22:53;;;;;;;49.38;21.33;;;;;;;;;;5050869;28;20172;-50
2020/12/02 02:25:19;;;;;;;47.27;21.47;;;;;;;;;;5050862;28;20197;-49
2020/12/02 02:27:46;;;;;;;43.90;21.05;;;;;;;;;;5061966;23;20542;-56
2020/12/02 02:30:12;;;;;;;45.97;20.30;;;;;;;;;;5050790;28;20247;-56
2020/12/02 02:32:38;;;;;;;38.93;18.50;;;;;;;;;;5050768;28;20964;-56
2020/12/02 02:35:04;;;;;;;47.27;21.00;;;;;;;;;;5050802;28;20391;-56
2020/12/02 02:37:31;;;;;;;49.10;20.98;;;;;;;;;;5065962;28;20457;-57
2020/12/02 02:39:58;;;;;;;47.10;20.30;;;;;;;;;;5070664;28;20209;-55
2020/12/02 02:42:36;;;;;;;53.73;22.07;;;;;;;;;;5070571;28;20750;-55
2020/12/02 02:45:07;;;;;;;40.73;19.03;;;;;;;;;;5070667;28;20489;-57
2020/12/02 02:47:33;;;;;;;39.53;17.67;;;;;;;;;;5070662;28;20405;-55
2020/12/02 02:49:59;;;;;;;41.77;18.70;;;;;;;;;;5070688;28;20919;-55
2020/12/02 02:52:25;;;;;;;41.77;17.90;;;;;;;;;;5070475;28;20448;-55
2020/12/02 02:54:51;;;;;;;38.90;17.60;;;;;;;;;;5070594;28;20750;-55
2020/12/02 02:57:17;;;;;;;36.30;18.70;;;;;;;;;;5070048;28;20453;-55
2020/12/02 02:59:43;;;;;;;40.70;19.30;;;;;;;;;;5070474;28;20413;-57
2020/12/02 03:02:11;;;;;;;49.30;22.37;;;;;;;;;;5070319;28;20419;-58
2020/12/02 03:04:37;;;;;;;38.40;19.57;;;;;;;;;;5070711;28;20398;-58
2020/12/02 03:07:03;;;;;;;43.60;20.20;;;;;;;;;;5068806;28;20514;-56
2020/12/02 03:09:29;;;;;;;45.33;20.55;;;;;;;;;;5070570;28;20405;-55
2020/12/02 03:11:55;;;;;;;37.30;16.67;;;;;;;;;;5070274;28;20175;-55
2020/12/02 03:14:22;;;;;;;42.93;17.50;;;;;;;;;;5070551;28;20466;-58
2020/12/02 03:16:48;;;;;;;36.75;18.10;;;;;;;;;;5070202;28;20452;-56
2020/12/02 03:19:17;;;;;;;36.40;18.23;;;;;;;;;;5070541;28;20171;-56
2020/12/02 03:21:43;;;;;;;35.80;17.37;;;;;;;;;;5069423;28;20434;-57
2020/12/02 03:24:10;;;;;;;34.10;15.90;;;;;;;;;;5070136;28;20412;-56
2020/12/02 03:26:36;;;;;;;35.88;15.82;;;;;;;;;;5070226;28;20449;-56
2020/12/02 03:29:02;;;;;;;29.83;13.67;;;;;;;;;;5069458;28;20178;-58
2020/12/02 03:31:28;;;;;;;36.97;16.90;;;;;;;;;;5070098;28;20507;-59
2020/12/02 03:33:54;;;;;;;53.57;19.70;;;;;;;;;;5085814;28;20508;-58
2020/12/02 03:36:21;;;;;;;51.97;17.70;;;;;;;;;;5070047;28;21018;-57
2020/12/02 03:38:49;;;;;;;48.65;18.15;;;;;;;;;;5070331;28;20459;-56
2020/12/02 03:41:16;;;;;;;38.08;17.77;;;;;;;;;;5069370;28;20661;-56
2020/12/02 03:43:42;;;;;;;29.83;13.70;;;;;;;;;;5070157;28;20568;-56
2020/12/02 03:46:08;;;;;;;28.77;15.77;;;;;;;;;;5070301;28;20183;-55
2020/12/02 03:48:34;;;;;;;28.47;14.73;;;;;;;;;;5070225;28;20411;-55
2020/12/02 03:51:00;;;;;;;31.17;16.63;;;;;;;;;;5070415;28;20409;-55
2020/12/02 03:53:26;;;;;;;31.70;16.23;;;;;;;;;;5070174;28;20408;-54
2020/12/02 03:55:52;;;;;;;30.97;15.50;;;;;;;;;;5070343;28;20285;-54
2020/12/02 03:58:18;;;;;;;33.47;14.82;;;;;;;;;;5070408;28;20394;-55
2020/12/02 04:00:45;;;;;;;29.77;15.20;;;;;;;;;;5070161;28;20215;-55
2020/12/02 04:03:12;;;;;;;35.50;15.93;;;;;;;;;;5069815;28;20166;-61
2020/12/02 04:05:38;;;;;;;32.47;15.45;;;;;;;;;;5069108;28;20244;-55
2020/12/02 04:08:04;;;;;;;30.03;14.47;;;;;;;;;;5069695;28;20225;-55
2020/12/02 04:10:30;;;;;;;44.17;18.45;;;;;;;;;;5072107;28;20397;-55
2020/12/02 04:12:56;;;;;;;30.70;15.50;;;;;;;;;;5073391;28;20170;-56
2020/12/02 04:15:22;;;;;;;33.08;15.10;;;;;;;;;;5073281;28;20755;-55
2020/12/02 04:17:49;;;;;;;35.85;15.30;;;;;;;;;;5073376;28;20238;-55
2020/12/02 04:20:17;;;;;;;33.35;15.60;;;;;;;;;;5073239;28;20627;-55
2020/12/02 04:22:44;;;;;;;46.40;15.23;;;;;;;;;;5073157;28;20174;-58
2020/12/02 04:25:10;;;;;;;43.22;15.80;;;;;;;;;;5073133;28;20170;-55
2020/12/02 04:27:36;;;;;;;34.73;14.17;;;;;;;;;;5073103;28;20206;-56
2020/12/02 04:30:01;;;;;;;71.17;18.13;;;;;;;;;;5073046;28;20456;-56
2020/12/02 04:32:27;;;;;;;36.33;15.10;;;;;;;;;;5072962;28;20402;-55
2020/12/02 04:34:53;;;;;;;33.80;14.90;;;;;;;;;;5072995;28;20401;-54
2020/12/02 04:37:19;;;;;;;36.50;15.77;;;;;;;;;;5070578;28;20530;-55
2020/12/02 04:39:45;;;;;;;34.10;15.23;;;;;;;;;;5072948;28;20398;-54
2020/12/02 04:42:11;;;;;;;46.23;16.70;;;;;;;;;;5072753;28;20898;-54
2020/12/02 04:44:37;;;;;;;35.20;14.13;;;;;;;;;;5072736;28;20461;-55
2020/12/02 04:47:11;;;;;;;35.85;13.10;;;;;;;;;;5072812;28;20461;-57
2020/12/02 04:49:37;;;;;;;32.97;14.73;;;;;;;;;;5072827;28;20201;-57
2020/12/02 04:52:05;;;;;;;37.60;15.73;;;;;;;;;;5072490;28;20171;-56
2020/12/02 04:54:31;;;;;;;38.30;16.27;;;;;;;;;;5072805;28;20539;-56
2020/12/02 04:56:58;;;;;;;41.00;18.30;;;;;;;;;;5072461;28;20276;-55
2020/12/02 04:59:36;;;;;;;37.13;17.92;;;;;;;;;;5072590;28;20914;-56
2020/12/02 05:02:02;;;;;;;39.47;17.40;;;;;;;;;;5072248;28;20195;-58
2020/12/02 05:04:29;;;;;;;34.13;15.35;;;;;;;;;;5072547;28;20390;-56
2020/12/02 05:07:04;;;;;;;36.92;17.55;;;;;;;;;;5071480;28;20596;-55
2020/12/02 05:09:30;;;;;;;38.33;14.32;;;;;;;;;;5072058;28;20190;-54
2020/12/02 05:12:01;;;;;;;36.53;16.60;;;;;;;;;;5072092;28;20175;-58
2020/12/02 05:14:37;;;;;;;36.08;14.90;;;;;;;;;;5072245;28;20171;-55
2020/12/02 05:17:17;;;;;;;34.37;15.90;;;;;;;;;;5072050;28;20202;-55
2020/12/02 05:19:44;;;;;;;40.90;17.52;;;;;;;;;;5072270;28;20400;-56
2020/12/02 05:22:12;;;;;;;37.67;17.00;;;;;;;;;;5071540;28;20178;-55
2020/12/02 05:24:47;;;;;;;40.90;18.90;;;;;;;;;;5072235;28;20405;-57
2020/12/02 05:27:15;;;;;;;39.42;17.55;;;;;;;;;;5071816;28;20301;-57
2020/12/02 05:29:50;;;;;;;39.17;18.85;;;;;;;;;;5072170;28;20581;-57
2020/12/02 05:32:19;;;;;;;44.05;18.40;;;;;;;;;;5071770;28;20199;-55
2020/12/02 05:34:46;;;;;;;38.25;17.40;;;;;;;;;;5072248;28;20167;-57
2020/12/02 05:37:16;;;;;;;42.05;18.83;;;;;;;;;;5070418;28;20660;-56
2020/12/02 05:39:42;;;;;;;45.85;18.80;;;;;;;;;;5071991;28;20159;-57
2020/12/02 05:42:13;;;;;;;40.63;16.92;;;;;;;;;;5071687;28;20175;-56
2020/12/02 05:44:42;;;;;;;43.40;17.35;;;;;;;;;;5071810;28;20171;-55
2020/12/02 05:47:14;;;;;;;37.92;16.63;;;;;;;;;;5070887;28;20198;-56
2020/12/02 05:49:40;;;;;;;42.17;17.83;;;;;;;;;;5071545;28;20179;-57
2020/12/02 05:52:26;;;;;;;36.78;16.90;;;;;;;;;;5071318;28;20162;-56
2020/12/02 05:55:12;;;;;;;32.38;15.52;;;;;;;;;;5060913;28;20186;-57
2020/12/02 05:57:49;;;;;;;30.17;13.70;;;;;;;;;;5060679;28;20232;-54
2020/12/02 06:00:15;;;;;;;30.65;15.55;;;;;;;;;;5071260;28;20173;-56
2020/12/02 06:02:41;;;;;;;25.97;13.47;;;;;;;;;;5071196;28;20182;-54
2020/12/02 06:05:11;;;;;;;22.73;13.25;;;;;;;;;;5071207;28;20409;-55
2020/12/02 06:07:48;;;;;;;26.37;14.57;;;;;;;;;;5070333;28;20554;-55
2020/12/02 06:10:15;;;;;;;24.02;14.73;;;;;;;;;;5071079;28;20864;-55
2020/12/02 06:12:42;;;;;;;22.30;13.48;;;;;;;;;;5071008;28;20249;-56
2020/12/02 06:15:19;;;;;;;27.55;14.52;;;;;;;;;;5071077;28;20165;-54
2020/12/02 06:17:45;;;;;;;33.42;14.93;;;;;;;;;;5071079;28;20209;-55
2020/12/02 06:20:11;;;;;;;26.23;13.10;;;;;;;;;;5071064;28;20170;-55
2020/12/02 06:22:43;;;;;;;27.60;14.33;;;;;;;;;;5070872;28;20429;-55
2020/12/02 06:25:35;;;;;;;27.48;14.25;;;;;;;;;;5070985;28;20405;-55
2020/12/02 06:28:00;;;;;;;25.25;12.30;;;;;;;;;;5070734;28;20210;-55
2020/12/02 06:30:26;;;;;;;18.73;12.57;;;;;;;;;;5070821;28;20167;-56
2020/12/02 06:33:00;;;;;;;20.30;13.03;;;;;;;;;;5070121;28;20423;-55
2020/12/02 06:35:26;;;;;;;21.98;12.65;;;;;;;;;;5070888;28;20404;-55
2020/12/02 06:38:10;;;;;;;24.20;13.03;;;;;;;;;;5069698;28;20199;-55
2020/12/02 06:40:36;;;;;;;22.58;14.00;;;;;;;;;;5050720;28;20895;-56
2020/12/02 06:43:05;;;;;;;25.33;15.70;;;;;;;;;;5050811;28;20205;-56
2020/12/02 06:45:36;;;;;;;29.08;16.23;;;;;;;;;;5050717;28;20950;-55
2020/12/02 06:48:05;;;;;;;28.50;15.27;;;;;;;;;;5050736;28;20284;-55
2020/12/02 06:50:33;;;;;;;27.67;15.00;;;;;;;;;;5050498;28;20276;-57
2020/12/02 06:53:13;;;;;;;28.52;16.67;;;;;;;;;;5050599;28;20230;-55
2020/12/02 06:55:39;;;;;;;29.75;15.32;;;;;;;;;;5050636;28;20224;-56
2020/12/02 06:58:18;;;;;;;24.25;13.82;;;;;;;;;;5050722;28;20187;-55
2020/12/02 07:00:49;;;;;;;29.95;16.73;;;;;;;;;;5050725;28;20159;-54
2020/12/02 07:03:18;;;;;;;29.08;14.85;;;;;;;;;;5050486;28;20174;-54
2020/12/02 07:05:44;;;;;;;29.75;15.82;;;;;;;;;;5050646;28;20163;-54
2020/12/02 07:08:21;;;;;;;30.50;15.70;;;;;;;;;;5050451;28;20305;-59
2020/12/02 07:11:13;;;;;;;24.55;16.10;;;;;;;;;;5070484;28;20231;-55
2020/12/02 07:13:43;;;;;;;28.70;16.17;;;;;;;;;;5067851;28;20189;-54
2020/12/02 07:16:21;;;;;;;32.50;14.88;;;;;;;;;;5070903;28;20274;-58
2020/12/02 07:18:48;;;;;;;47.25;16.65;;;;;;;;;;5070530;28;20172;-55
2020/12/02 07:21:26;;;;;;;34.17;18.40;;;;;;;;;;5070452;28;20170;-57
2020/12/02 07:23:53;;;;;;;39.72;16.90;;;;;;;;;;5070120;28;20170;-57
2020/12/02 07:26:19;;;;;;;31.42;17.63;;;;;;;;;;5070432;28;20206;-55
2020/12/02 07:28:45;;;;;;;41.75;16.85;;;;;;;;;;5069521;28;20260;-55
2020/12/02 07:31:16;;;;;;;41.17;18.50;;;;;;;;;;5074177;28;20198;-55
2020/12/02 07:33:53;;;;;;;52.83;17.40;;;;;;;;;;5069250;28;20177;-56
2020/12/02 07:36:23;;;;;;;94.43;20.63;;;;;;;;;;5069693;28;20236;-55
2020/12/02 07:38:58;;;;;;;47.03;18.58;;;;;;;;;;5069141;28;20179;-57
2020/12/02 07:41:24;;;;;;;107.07;22.40;;;;;;;;;;5069341;28;20170;-57
2020/12/02 07:43:50;;;;;;;49.57;19.43;;;;;;;;;;5071688;28;20239;-58
2020/12/02 07:46:17;;;;;;;93.55;22.15;;;;;;;;;;5073197;28;20455;-58
2020/12/02 07:48:44;;;;;;;48.35;20.30;;;;;;;;;;5073245;28;20174;-57
2020/12/02 07:51:13;;;;;;;61.17;19.02;;;;;;;;;;5073140;28;20170;-58
2020/12/02 07:53:45;;;;;;;76.38;19.98;;;;;;;;;;5089220;28;20178;-57
2020/12/02 07:56:17;;;;;;;66.28;21.27;;;;;;;;;;5073356;28;20198;-57
2020/12/02 07:58:44;;;;;;;101.57;19.42;;;;;;;;;;5073288;28;20538;-55
2020/12/02 08:01:24;;;;;;;39.88;19.08;;;;;;;;;;5072883;28;20372;-55
2020/12/02 08:03:51;;;;;;;56.30;20.83;;;;;;;;;;5072859;28;20717;-56
2020/12/02 08:06:33;;;;;;;37.47;19.67;;;;;;;;;;5071054;28;20194;-55
2020/12/02 08:08:59;;;;;;;29.38;17.27;;;;;;;;;;5069459;28;20177;-57
2020/12/02 08:11:25;;;;;;;28.83;16.40;;;;;;;;;;5072061;28;20237;-57
2020/12/02 08:13:53;;;;;;;26.58;17.13;;;;;;;;;;5072499;28;20389;-56
2020/12/02 08:16:38;;;;;;;37.83;19.80;;;;;;;;;;5072768;28;20286;-58
2020/12/02 08:19:05;;;;;;;29.98;16.58;;;;;;;;;;5073507;28;20170;-55
2020/12/02 08:21:32;;;;;;;25.40;15.30;;;;;;;;;;5073292;28;20255;-56
2020/12/02 08:24:04;;;;;;;28.60;15.63;;;;;;;;;;5073138;28;20171;-55
2020/12/02 08:29:06;;;;;;;28.30;15.70;;;;;;;;;;5067989;28;20213;-47
2020/12/02 08:31:33;;;;;;;28.67;15.68;;;;;;;;;;5073066;28;20219;-47
2020/12/02 08:34:08;;;;;;;28.13;16.35;;;;;;;;;;5073197;28;20174;-48
2020/12/02 08:36:34;;;;;;;33.05;17.92;;;;;;;;;;5074096;28;20228;-47
2020/12/02 08:39:00;;;;;;;29.30;15.27;;;;;;;;;;5086187;28;20202;-47
2020/12/02 08:41:26;;;;;;;27.05;16.13;;;;;;;;;;5072968;28;20396;-47
2020/12/02 08:44:06;;;;;;;33.07;17.27;;;;;;;;;;5072786;28;20525;-47
2020/12/02 08:46:32;;;;;;;31.95;18.63;;;;;;;;;;5072969;28;20484;-47
2020/12/02 08:49:02;;;;;;;30.42;16.58;;;;;;;;;;5072912;28;20178;-48
2020/12/02 08:51:28;;;;;;;24.20;15.95;;;;;;;;;;5072871;28;20170;-48
2020/12/02 08:53:54;;;;;;;31.67;18.60;;;;;;;;;;5072629;28;20177;-47
2020/12/02 08:56:29;;;;;;;26.48;16.35;;;;;;;;;;5072306;28;20226;-48
2020/12/02 08:58:55;;;;;;;29.30;16.48;;;;;;;;;;5073029;28;20174;-48
2020/12/02 09:01:21;;;;;;;28.87;16.53;;;;;;;;;;5072929;28;20166;-47
2020/12/02 09:03:47;;;;;;;27.10;15.60;;;;;;;;;;5072480;28;20393;-47
2020/12/02 09:06:14;;;;;;;29.88;16.67;;;;;;;;;;5072578;28;20402;-47
2020/12/02 09:08:40;;;;;;;24.48;14.52;;;;;;;;;;5072673;28;20524;-47
2020/12/02 09:11:06;;;;;;;31.33;16.30;;;;;;;;;;5072724;28;20179;-47
2020/12/02 09:13:32;;;;;;;26.03;14.77;;;;;;;;;;5072107;28;20400;-47
2020/12/02 09:15:58;;;;;;;25.70;14.83;;;;;;;;;;5072364;28;20487;-47
2020/12/02 09:18:24;;;;;;;25.37;15.10;;;;;;;;;;5072307;28;20421;-47
2020/12/02 09:20:50;;;;;;;26.27;17.43;;;;;;;;;;5072061;28;20402;-48
2020/12/02 09:23:16;;;;;;;31.17;15.87;;;;;;;;;;5072091;28;20784;-48
2020/12/02 09:25:42;;;;;;;26.40;15.52;;;;;;;;;;5072109;28;20421;-47
2020/12/02 09:28:08;;;;;;;29.70;17.07;;;;;;;;;;5072026;28;20276;-48
2020/12/02 09:30:35;;;;;;;26.80;16.90;;;;;;;;;;5071953;28;20397;-47
2020/12/02 09:33:01;;;;;;;26.48;17.02;;;;;;;;;;5071880;28;20408;-49
2020/12/02 09:35:28;;;;;;;28.60;16.92;;;;;;;;;;5071783;28;20566;-47
2020/12/02 09:37:54;;;;;;;25.60;17.30;;;;;;;;;;5071697;28;20206;-47
2020/12/02 09:40:21;;;;;;;27.80;16.60;;;;;;;;;;5071291;28;20198;-47
2020/12/02 09:42:59;;;;;;;29.27;17.23;;;;;;;;;;5071625;28;20397;-48
2020/12/02 09:45:39;;;;;;;27.40;17.10;;;;;;;;;;5071652;28;20163;-48
2020/12/02 09:48:11;;;;;;;31.13;18.30;;;;;;;;;;5071684;28;20418;-47
2020/12/02 09:50:37;;;;;;;28.73;15.93;;;;;;;;;;5071609;28;20485;-48
2020/12/02 09:53:09;;;;;;;27.73;16.90;;;;;;;;;;5071402;28;20644;-48
2020/12/02 09:55:35;;;;;;;30.87;17.83;;;;;;;;;;5071431;28;20416;-47
2020/12/02 09:58:01;;;;;;;33.33;18.10;;;;;;;;;;5071532;28;20224;-49
2020/12/02 10:00:27;;;;;;;34.80;18.40;;;;;;;;;;5071382;28;20490;-47
2020/12/02 10:03:11;;;;;;;29.83;18.47;;;;;;;;;;5071162;28;20938;-48
2020/12/02 10:05:59;;;;;;;30.13;17.27;;;;;;;;;;5071469;28;20455;-47
2020/12/02 10:08:34;;;;;;;31.77;19.00;;;;;;;;;;5070601;28;20495;-47
2020/12/02 10:11:12;;;;;;;30.80;17.50;;;;;;;;;;5071204;28;20415;-47
2020/12/02 10:13:59;;;;;;;29.60;18.80;;;;;;;;;;5071136;28;20190;-49
2020/12/02 10:16:40;;;;;;;37.73;21.10;;;;;;;;;;5071264;28;20270;-48
2020/12/02 10:19:09;;;;;;;27.90;17.03;;;;;;;;;;5071030;28;20418;-47
2020/12/02 10:21:44;;;;;;;32.00;18.50;;;;;;;;;;5070178;28;20393;-47
2020/12/02 10:24:10;;;;;;;32.53;17.97;;;;;;;;;;5070475;28;20390;-47
2020/12/02 10:26:57;;;;;;;28.13;17.90;;;;;;;;;;5071214;28;20410;-47
2020/12/02 10:29:33;;;;;;;29.63;17.85;;;;;;;;;;5071439;28;20418;-48
2020/12/02 10:32:21;;;;;;;30.00;18.93;;;;;;;;;;5071354;28;20175;-48
2020/12/02 10:34:47;;;;;;;26.17;16.00;;;;;;;;;;5071173;28;20753;-48
2020/12/02 10:37:19;;;;;;;31.63;18.13;;;;;;;;;;5070694;28;20466;-48
2020/12/02 10:39:45;;;;;;;31.37;18.23;;;;;;;;;;5071397;28;20410;-48
2020/12/02 10:42:15;;;;;;;27.43;16.80;;;;;;;;;;5070661;28;20427;-48
2020/12/02 10:44:53;;;;;;;30.97;18.10;;;;;;;;;;5081751;28;20425;-47
2020/12/02 10:47:28;;;;;;;32.27;17.97;;;;;;;;;;5070802;28;20811;-48
2020/12/02 10:49:55;;;;;;;30.07;17.80;;;;;;;;;;5070733;28;20430;-48
2020/12/02 10:52:21;;;;;;;35.80;18.67;;;;;;;;;;5070495;28;20494;-48
2020/12/02 10:54:48;;;;;;;27.10;17.87;;;;;;;;;;5070604;28;20409;-47
2020/12/02 10:57:17;;;;;;;27.30;17.23;;;;;;;;;;5070596;28;20460;-47
2020/12/02 10:59:45;;;;;;;20.13;12.70;;;;;;;;;;5071209;28;20417;-49
2020/12/02 11:02:15;;;;;;;20.40;13.03;;;;;;;;;;5070530;28;20403;-47
2020/12/02 11:04:41;;;;;;;24.37;14.30;;;;;;;;;;5070537;28;20561;-47
2020/12/02 11:07:26;;;;;;;21.37;13.43;;;;;;;;;;5070338;28;21461;-48
2020/12/02 11:10:10;;;;;;;24.03;13.53;;;;;;;;;;5078873;28;20986;-48
2020/12/02 11:12:59;;;;;;;21.93;14.53;;;;;;;;;;5090549;28;20881;-47
2020/12/02 11:15:52;;;;;;;22.73;14.70;;;;;;;;;;5082087;28;20418;-48
2020/12/02 11:18:44;;;;;;;22.23;14.03;;;;;;;;;;5065818;28;20451;-47
2020/12/02 11:21:12;;;;;;;27.17;16.07;;;;;;;;;;5094067;28;20393;-48
2020/12/02 11:23:38;;;;;;;21.37;13.10;;;;;;;;;;5094319;28;20423;-48
2020/12/02 11:26:12;;;;;;;23.00;13.07;;;;;;;;;;5094650;28;20416;-47
2020/12/02 11:28:48;;;;;;;19.43;13.77;;;;;;;;;;5094593;28;20551;-48
2020/12/02 11:31:38;;;;;;;21.97;14.57;;;;;;;;;;5094370;28;20391;-48
2020/12/02 11:34:22;;;;;;;24.40;15.30;;;;;;;;;;5086192;28;20407;-48
2020/12/02 11:36:48;;;;;;;25.40;16.10;;;;;;;;;;5094331;28;20457;-48
2020/12/02 11:39:31;;;;;;;22.63;15.40;;;;;;;;;;5078073;28;20795;-48
2020/12/02 11:42:06;;;;;;;20.37;14.57;;;;;;;;;;5073554;28;20422;-47
2020/12/02 11:44:38;;;;;;;23.23;15.18;;;;;;;;;;5093853;28;20392;-48
2020/12/02 11:47:27;;;;;;;22.07;15.00;;;;;;;;;;5094189;28;20191;-47
2020/12/02 11:49:55;;;;;;;23.83;16.10;;;;;;;;;;5094399;28;20414;-48
2020/12/02 11:52:30;;;;;;;22.30;15.57;;;;;;;;;;5093901;28;20402;-47
2020/12/02 11:54:56;;;;;;;28.93;16.37;;;;;;;;;;5094215;28;20433;-48
2020/12/02 11:57:23;;;;;;;27.90;18.30;;;;;;;;;;5093847;28;20466;-48
2020/12/02 11:59:49;;;;;;;28.63;17.20;;;;;;;;;;5094228;28;20905;-47
2020/12/02 12:02:28;;;;;;;30.25;15.68;;;;;;;;;;5093709;28;20406;-47
2020/12/02 12:05:13;;;;;;;26.17;15.70;;;;;;;;;;5093949;28;20170;-48
2020/12/02 12:07:44;;;;;;;32.03;18.13;;;;;;;;;;5093595;28;20423;-47
2020/12/02 12:10:22;;;;;;;25.17;16.13;;;;;;;;;;5090250;28;20533;-47
2020/12/02 12:12:54;;;;;;;27.60;17.97;;;;;;;;;;5093670;28;20404;-47
2020/12/02 12:15:40;;;;;;;33.17;18.43;;;;;;;;;;5093931;28;20397;-48
2020/12/02 12:18:22;;;;;;;90.10;49.73;;;;;;;;;;5057181;28;20497;-49
2020/12/02 12:20:55;;;;;;;38.40;23.07;;;;;;;;;;5093511;28;20404;-48
2020/12/02 12:23:27;;;;;;;33.90;17.43;;;;;;;;;;5093356;28;20485;-48
2020/12/02 12:25:53;;;;;;;27.00;18.33;;;;;;;;;;5093642;28;20448;-47
2020/12/02 12:28:22;;;;;;;35.13;19.17;;;;;;;;;;5093323;28;20795;-48
2020/12/02 12:30:49;;;;;;;36.77;19.80;;;;;;;;;;5092188;28;20419;-48
2020/12/02 12:33:47;;;;;;;34.65;19.55;;;;;;;;;;5093289;28;20401;-48
2020/12/02 12:36:23;;;;;;;32.63;18.90;;;;;;;;;;5081020;28;20214;-47
2020/12/02 12:39:03;;;;;;;31.37;18.07;;;;;;;;;;5089485;28;20444;-47
2020/12/02 12:41:39;;;;;;;33.40;20.20;;;;;;;;;;5073275;28;20763;-47
2020/12/02 12:44:18;;;;;;;32.93;18.93;;;;;;;;;;5072853;28;20176;-48
2020/12/02 12:46:48;;;;;;;34.13;18.80;;;;;;;;;;5073932;28;20927;-47
2020/12/02 12:49:15;;;;;;;33.23;19.50;;;;;;;;;;5082225;28;20910;-47
2020/12/02 12:51:46;;;;;;;37.30;21.55;;;;;;;;;;5072623;28;20485;-48
2020/12/02 12:54:17;;;;;;;38.85;21.65;;;;;;;;;;5072758;28;20541;-47
2020/12/02 12:56:44;;;;;;;34.80;19.77;;;;;;;;;;5072422;28;20195;-47
2020/12/02 12:59:16;;;;;;;41.78;21.98;;;;;;;;;;5072791;28;20630;-48
2020/12/02 13:01:45;;;;;;;37.27;21.93;;;;;;;;;;5072345;28;20167;-48
2020/12/02 13:04:12;;;;;;;37.22;21.73;;;;;;;;;;5072570;28;20410;-49
2020/12/02 13:06:48;;;;;;;35.70;20.93;;;;;;;;;;5073082;28;20166;-49
2020/12/02 13:09:17;;;;;;;37.70;19.95;;;;;;;;;;5072295;28;21167;-46
2020/12/02 13:11:52;;;;;;;30.23;16.60;;;;;;;;;;5072324;28;20206;-45
2020/12/02 13:14:32;;;;;;;19.20;11.88;;;;;;;;;;5072029;28;20409;-48
2020/12/02 13:17:01;;;;;;;17.52;11.43;;;;;;;;;;5072142;28;20798;-49
2020/12/02 13:19:33;;;;;;;12.75;10.05;;;;;;;;;;5072454;28;20656;-46
2020/12/02 13:22:01;;;;;;;15.45;11.45;;;;;;;;;;5072130;28;20190;-46
2020/12/02 13:24:46;;;;;;;21.25;13.88;;;;;;;;;;5071786;28;20162;-46
2020/12/02 13:27:19;;;;;;;27.42;15.95;;;;;;;;;;5071917;28;20218;-47
2020/12/02 13:29:47;;;;;;;23.10;14.23;;;;;;;;;;5072183;28;20178;-46
2020/12/02 13:32:13;;;;;;;27.23;15.65;;;;;;;;;;5071864;28;20184;-47
2020/12/02 13:34:39;;;;;;;19.10;11.90;;;;;;;;;;5072039;28;20583;-47
2020/12/02 13:37:05;;;;;;;13.60;8.90;;;;;;;;;;5071481;28;20450;-46
2020/12/02 13:39:31;;;;;;;10.60;8.43;;;;;;;;;;5071319;28;20619;-47
2020/12/02 13:41:58;;;;;;;8.80;7.90;;;;;;;;;;5071694;28;20506;-46
2020/12/02 13:44:38;;;;;;;9.50;7.43;;;;;;;;;;5071726;28;20398;-47
2020/12/02 13:47:04;;;;;;;9.00;7.22;;;;;;;;;;5071736;28;20208;-46
2020/12/02 13:49:30;;;;;;;9.35;7.80;;;;;;;;;;5071820;28;20642;-46
2020/12/02 13:51:56;;;;;;;11.43;8.70;;;;;;;;;;5071558;28;20630;-46
2020/12/02 13:54:25;;;;;;;10.02;8.50;;;;;;;;;;5071667;28;20647;-46
2020/12/02 13:57:15;;;;;;;12.60;9.10;;;;;;;;;;5071519;28;20206;-46
2020/12/02 13:59:44;;;;;;;10.25;7.82;;;;;;;;;;5066027;28;20179;-47
2020/12/02 14:02:22;;;;;;;10.80;8.02;;;;;;;;;;5070996;28;20180;-47
2020/12/02 14:04:50;;;;;;;9.15;7.93;;;;;;;;;;5071498;28;20246;-46
2020/12/02 14:07:17;;;;;;;10.67;8.43;;;;;;;;;;5071313;28;20225;-46
2020/12/02 14:09:50;;;;;;;11.48;8.77;;;;;;;;;;5078366;28;20530;-47
2020/12/02 14:12:18;;;;;;;10.63;8.50;;;;;;;;;;5091234;28;20178;-47
2020/12/02 14:14:45;;;;;;;11.30;8.52;;;;;;;;;;5091206;28;20621;-47
2020/12/02 14:17:14;;;;;;;11.02;8.68;;;;;;;;;;5091317;28;20202;-47
2020/12/02 14:19:40;;;;;;;14.82;8.50;;;;;;;;;;5091404;28;20170;-46
2020/12/02 14:22:15;;;;;;;9.02;7.60;;;;;;;;;;5091081;28;20298;-47
2020/12/02 14:24:42;;;;;;;10.43;8.70;;;;;;;;;;5091156;28;20537;-46
2020/12/02 14:27:10;;;;;;;10.15;9.05;;;;;;;;;;5091005;28;20439;-47
2020/12/02 14:29:36;;;;;;;8.85;7.95;;;;;;;;;;5088183;22;20223;-55
2020/12/02 14:32:02;;;;;;;10.60;8.40;;;;;;;;;;5029177;28;20604;-56
2020/12/02 14:34:28;;;;;;;11.13;8.70;;;;;;;;;;5029480;28;20594;-56
2020/12/02 14:36:54;;;;;;;9.30;8.10;;;;;;;;;;5029944;28;20446;-55
2020/12/02 14:39:20;;;;;;;10.67;8.73;;;;;;;;;;5029087;28;20943;-55